Time;durP1;ratioP1;P1;durP2;ratioP2;P2;SDS_P1;SDS_P2;PMS_P1;PMS_P2;Temp;Humidity;BMP_temperature;BMP_pressure;BME280_temperature;BME280_humidity;BME280_pressure;Samples;Min_cycle;Max_cycle;Signal;HPM_P1;HPM_P2
2022/01/11 00:01:42;;;;;;;3.38;1.83;;;;;;;-0.94;100.00;92336.84;5048707;28;20048;-82
2022/01/11 00:04:09;;;;;;;3.95;2.20;;;;;;;-0.96;100.00;92328.66;5048944;28;20048;-83
2022/01/11 00:06:41;;;;;;;3.40;1.80;;;;;;;-0.97;100.00;92342.22;5047443;28;20234;-83
2022/01/11 00:09:20;;;;;;;3.72;2.05;;;;;;;-0.99;100.00;92339.03;5048458;28;20049;-82
2022/01/11 00:11:47;;;;;;;3.90;2.03;;;;;;;-0.98;100.00;92340.63;5048657;28;20041;-83
2022/01/11 00:14:14;;;;;;;6.18;2.60;;;;;;;-1.00;100.00;92340.81;5048349;28;20094;-87
2022/01/11 00:16:42;;;;;;;4.47;2.72;;;;;;;-1.28;100.00;92288.25;5048337;28;20049;-82
2022/01/11 00:19:09;;;;;;;4.43;2.80;;;;;;;-0.97;100.00;92342.22;5048237;28;20095;-83
2022/01/11 00:21:44;;;;;;;4.45;3.00;;;;;;;-1.00;100.00;92360.97;5048038;28;20348;-82
2022/01/11 00:24:29;;;;;;;4.07;2.70;;;;;;;-0.94;100.00;92359.53;5048435;28;20506;-81
2022/01/11 00:27:01;;;;;;;3.83;2.70;;;;;;;-1.03;100.00;92376.41;5048242;28;20045;-93
2022/01/11 00:29:29;;;;;;;4.43;3.00;;;;;;;-1.06;100.00;92378.44;5048326;28;20404;-83
2022/01/11 00:32:03;;;;;;;4.63;3.00;;;;;;;-1.14;100.00;92372.47;5048149;28;20548;-85
2022/01/11 00:34:40;;;;;;;4.50;3.20;;;;;;;-1.11;100.00;92378.94;5048138;28;20049;-82
2022/01/11 00:37:07;;;;;;;5.32;3.40;;;;;;;-1.07;100.00;92387.72;5048186;28;20056;-89
2022/01/11 00:39:34;;;;;;;4.97;3.13;;;;;;;-1.03;100.00;92380.66;5048043;28;20044;-82
2022/01/11 00:42:02;;;;;;;4.60;3.45;;;;;;;-1.08;100.00;92394.53;5047928;28;20045;-82
2022/01/11 00:44:29;;;;;;;4.88;3.17;;;;;;;-1.13;100.00;92385.84;5047783;28;20074;-83
2022/01/11 00:46:57;;;;;;;4.75;2.90;;;;;;;-1.16;100.00;92358.47;5047833;28;20041;-84
2022/01/11 00:49:24;;;;;;;3.78;2.70;;;;;;;-1.14;100.00;92382.56;5047894;28;20048;-81
2022/01/11 00:51:51;;;;;;;5.25;2.22;;;;;;;-1.32;100.00;92352.50;5047977;28;20041;-86
2022/01/11 00:54:30;;;;;;;;;;;;;;;;;;;;;
2022/01/11 00:56:57;;;;;;;3.92;2.00;;;;;;;-1.14;100.00;92380.03;5047650;28;20110;-82
2022/01/11 00:59:23;;;;;;;3.88;2.10;;;;;;;-1.10;100.00;92403.97;5047912;28;20052;-85
2022/01/11 01:01:50;;;;;;;4.13;2.05;;;;;;;-1.30;100.00;92369.97;5047757;28;20400;-82
2022/01/11 01:04:21;;;;;;;3.60;1.60;;;;;;;-1.15;100.00;92398.59;5047682;28;20045;-92
2022/01/11 01:06:48;;;;;;;3.33;2.38;;;;;;;-1.18;100.00;92401.47;5047159;28;20075;-85
2022/01/11 01:09:14;;;;;;;5.68;2.20;;;;;;;-1.19;100.00;92407.44;5047797;28;20045;-82
2022/01/11 01:11:43;;;;;;;4.13;2.45;;;;;;;-1.17;100.00;92410.59;5047798;28;20419;-81
2022/01/11 01:14:12;;;;;;;3.15;2.28;;;;;;;-1.28;100.00;92426.03;5047846;28;20135;-91
2022/01/11 01:16:40;;;;;;;3.35;2.03;;;;;;;-1.14;100.00;92422.09;5047943;28;20084;-81
2022/01/11 01:19:07;;;;;;;2.65;1.83;;;;;;;-1.12;100.00;92438.63;5047327;28;20057;-85
2022/01/11 01:21:39;;;;;;;2.42;1.33;;;;;;;-1.11;100.00;92436.91;5047255;28;20064;-87
2022/01/11 01:24:09;;;;;;;3.40;1.55;;;;;;;-1.09;100.00;92432.50;5047599;28;20072;-82
2022/01/11 01:26:36;;;;;;;2.08;1.25;;;;;;;-1.10;100.00;92433.44;5047390;28;20044;-85
2022/01/11 01:29:04;;;;;;;2.60;1.20;;;;;;;-1.05;100.00;92431.22;5047261;28;20392;-82
2022/01/11 01:31:31;;;;;;;1.63;0.77;;;;;;;-1.10;100.00;92423.34;5047032;28;20053;-82
2022/01/11 01:33:58;;;;;;;2.00;1.13;;;;;;;-1.00;100.00;92439.09;5047105;28;20477;-83
2022/01/11 01:36:26;;;;;;;1.55;0.70;;;;;;;-1.06;100.00;92424.63;5046829;28;20053;-83
2022/01/11 01:38:54;;;;;;;1.27;0.77;;;;;;;-0.98;100.00;92419.56;5046932;28;20056;-83
2022/01/11 01:41:22;;;;;;;1.35;0.70;;;;;;;-1.05;100.00;92453.91;5047080;28;20099;-88
2022/01/11 01:43:51;;;;;;;1.23;0.80;;;;;;;-1.14;100.00;92432.97;5046813;28;20052;-84
2022/01/11 01:46:19;;;;;;;1.75;0.93;;;;;;;-1.20;100.00;92423.53;5046797;28;20041;-84
2022/01/11 01:48:46;;;;;;;2.13;0.90;;;;;;;-1.14;100.00;92440.53;5046817;28;20049;-82
2022/01/11 01:51:14;;;;;;;2.25;1.25;;;;;;;-1.37;100.00;92421.00;5046654;28;20479;-82
2022/01/11 01:53:45;;;;;;;1.40;0.90;;;;;;;-1.48;100.00;92416.25;5047241;28;20134;-89
2022/01/11 01:56:13;;;;;;;2.55;0.90;;;;;;;-1.30;100.00;92438.00;5046901;28;20048;-87
2022/01/11 01:58:46;;;;;;;1.35;0.85;;;;;;;-1.33;100.00;92428.22;5046747;28;20495;-87
2022/01/11 02:01:14;;;;;;;2.50;1.20;;;;;;;-1.36;100.00;92436.88;5046659;28;20045;-87
2022/01/11 02:03:43;;;;;;;2.63;1.63;;;;;;;-1.37;100.00;92441.16;5046454;28;20530;-85
2022/01/11 02:06:12;;;;;;;2.58;1.40;;;;;;;-1.41;100.00;92439.88;5047096;28;20064;-87
2022/01/11 02:08:50;;;;;;;;;;;;;;;;;;;;;
2022/01/11 02:11:29;;;;;;;4.15;2.50;;;;;;;-1.40;100.00;92456.56;5047003;28;20049;-86
2022/01/11 02:13:56;;;;;;;3.17;1.50;;;;;;;-1.37;100.00;92458.78;5046925;28;20102;-86
2022/01/11 02:16:26;;;;;;;3.58;1.30;;;;;;;-1.38;100.00;92458.94;5047301;28;20045;-94
2022/01/11 02:18:54;;;;;;;4.68;2.47;;;;;;;-1.76;100.00;92386.31;5046543;28;20657;-86
2022/01/11 02:21:23;;;;;;;5.60;3.40;;;;;;;-1.34;100.00;92467.75;5046707;28;20102;-86
2022/01/11 02:23:51;;;;;;;13.23;6.57;;;;;;;-1.35;100.00;92469.47;5046316;28;20531;-83
2022/01/11 02:26:20;;;;;;;15.13;6.88;;;;;;;-1.52;100.00;92432.63;5046474;28;20041;-85
2022/01/11 02:28:48;;;;;;;6.45;3.67;;;;;;;-1.40;100.00;92464.13;5046509;28;20564;-81
2022/01/11 02:31:15;;;;;;;4.95;2.33;;;;;;;-1.25;100.00;92476.88;5046105;28;20506;-84
2022/01/11 02:33:47;;;;;;;3.25;2.10;;;;;;;-1.29;100.00;92467.28;5046365;28;20434;-84
2022/01/11 02:36:18;;;;;;;6.50;3.63;;;;;;;-1.31;100.00;92462.41;5046313;28;20045;-83
2022/01/11 02:38:47;;;;;;;7.85;4.22;;;;;;;-1.31;100.00;92479.25;5046244;28;20399;-84
2022/01/11 02:41:14;;;;;;;4.18;2.33;;;;;;;-1.33;100.00;92471.84;5046278;28;20098;-84
2022/01/11 02:43:42;;;;;;;4.18;1.98;;;;;;;-1.32;100.00;92475.94;5046251;28;20049;-84
2022/01/11 02:46:09;;;;;;;6.28;3.67;;;;;;;-1.51;100.00;92457.66;5045970;28;20527;-84
2022/01/11 02:48:38;;;;;;;3.15;1.90;;;;;;;-1.58;100.00;92454.16;5046129;28;20056;-84
2022/01/11 02:51:05;;;;;;;2.25;1.30;;;;;;;-1.40;100.00;92481.75;5046660;28;20045;-83
2022/01/11 02:53:32;;;;;;;2.38;1.33;;;;;;;-1.36;100.00;92483.03;5045632;28;20045;-84
2022/01/11 02:56:00;;;;;;;3.50;1.27;;;;;;;-1.33;100.00;92479.41;5045928;28;20045;-83
2022/01/11 02:58:27;;;;;;;1.73;0.90;;;;;;;-1.34;100.00;92487.91;5045824;28;20982;-84
2022/01/11 03:00:54;;;;;;;1.73;1.08;;;;;;;-1.48;100.00;92477.47;5045936;28;20479;-85
2022/01/11 03:03:22;;;;;;;1.73;0.85;;;;;;;-1.40;100.00;92484.28;5046684;28;20049;-82
2022/01/11 03:05:52;;;;;;;1.67;0.98;;;;;;;-1.40;100.00;92501.91;5045695;28;20064;-84
2022/01/11 03:08:20;;;;;;;1.02;0.50;;;;;;;-1.36;100.00;92488.06;5045987;28;20052;-84
2022/01/11 03:10:48;;;;;;;1.15;0.60;;;;;;;-1.38;100.00;92497.50;5045788;28;20041;-84
2022/01/11 03:13:19;;;;;;;1.55;0.70;;;;;;;-1.37;100.00;92498.28;5046308;28;20049;-86
2022/01/11 03:15:48;;;;;;;1.15;0.57;;;;;;;-1.51;100.00;92474.50;5045488;28;20053;-85
2022/01/11 03:18:15;;;;;;;1.55;1.00;;;;;;;-1.33;100.00;92491.22;5025303;28;20095;-85
2022/01/11 03:20:45;;;;;;;1.67;0.95;;;;;;;-1.36;100.00;92509.94;5045779;28;20568;-84
2022/01/11 03:23:14;;;;;;;1.05;0.70;;;;;;;-1.50;100.00;92496.22;5045606;28;20078;-89
2022/01/11 03:25:41;;;;;;;0.80;0.50;;;;;;;-1.40;100.00;92506.94;5045875;28;20081;-83
2022/01/11 03:28:09;;;;;;;1.60;1.08;;;;;;;-1.48;100.00;92509.47;5045808;28;20045;-85
2022/01/11 03:30:38;;;;;;;1.95;0.90;;;;;;;-1.41;100.00;92517.97;5046143;28;20049;-90
2022/01/11 03:33:08;;;;;;;1.55;0.80;;;;;;;-1.62;100.00;92483.91;5045405;28;20053;-84
2022/01/11 03:35:36;;;;;;;2.28;1.00;;;;;;;-1.42;100.00;92518.13;5045971;28;20127;-85
2022/01/11 03:38:04;;;;;;;2.53;1.20;;;;;;;-1.43;100.00;92519.06;5045632;28;20052;-84
2022/01/11 03:40:32;;;;;;;3.00;1.58;;;;;;;-1.65;100.00;92499.34;5045779;28;20479;-84
2022/01/11 03:42:59;;;;;;;4.25;2.42;;;;;;;-1.77;100.00;92491.25;5047955;28;20097;-83
2022/01/11 03:45:37;;;;;;;;;;;;;;;;;;;;;
2022/01/11 03:48:10;;;;;;;3.42;1.42;;;;;;;-1.54;100.00;92533.50;5049064;28;20049;-90
2022/01/11 03:50:37;;;;;;;2.80;1.48;;;;;;;-1.59;100.00;92533.19;5049255;28;20053;-90
2022/01/11 03:53:11;;;;;;;2.65;1.27;;;;;;;-1.66;100.00;92540.53;5048861;28;20102;-90
2022/01/11 03:55:58;;;;;;;1.85;1.00;;;;;;;-1.62;100.00;92541.06;5049153;28;20053;-87
2022/01/11 03:58:26;;;;;;;1.48;0.70;;;;;;;-1.63;100.00;92547.00;5048727;28;20140;-84
2022/01/11 04:00:58;;;;;;;1.52;0.90;;;;;;;-1.74;100.00;92535.50;5048919;28;20106;-85
2022/01/11 04:03:37;;;;;;;1.40;0.82;;;;;;;-1.70;100.00;92536.78;5049294;28;20494;-86
2022/01/11 04:06:06;;;;;;;1.17;0.68;;;;;;;-1.78;100.00;92524.94;5048728;28;20048;-85
2022/01/11 04:08:32;;;;;;;1.27;0.70;;;;;;;-1.72;100.00;92538.63;5048907;28;20472;-83
2022/01/11 04:10:59;;;;;;;1.20;0.60;;;;;;;-1.72;100.00;92551.22;5049028;28;20102;-83
2022/01/11 04:13:28;;;;;;;1.98;1.00;;;;;;;-1.78;100.00;92547.59;5048291;28;20049;-88
2022/01/11 04:15:54;;;;;;;1.77;1.02;;;;;;;-1.77;100.00;92551.69;5047848;28;20465;-87
2022/01/11 04:18:24;;;;;;;2.75;1.25;;;;;;;-1.73;100.00;92579.88;5047923;28;20041;-88
2022/01/11 04:20:52;;;;;;;0.93;0.50;;;;;;;-1.76;100.00;92565.84;5047703;28;20045;-85
2022/01/11 04:23:20;;;;;;;1.17;0.55;;;;;;;-1.70;100.00;92563.69;5044485;28;20037;-86
2022/01/11 04:25:47;;;;;;;0.90;0.50;;;;;;;-1.69;100.00;92567.75;5047243;28;20052;-85
2022/01/11 04:28:14;;;;;;;1.42;0.73;;;;;;;-1.74;100.00;92563.19;5047422;28;20490;-85
2022/01/11 04:30:41;;;;;;;1.23;0.70;;;;;;;-1.76;100.00;92583.47;5047081;28;20053;-85
2022/01/11 04:33:08;;;;;;;1.65;0.88;;;;;;;-1.77;100.00;92596.22;5047493;28;20053;-88
2022/01/11 04:35:36;;;;;;;1.23;0.80;;;;;;;-1.89;100.00;92580.59;5047860;28;20056;-87
2022/01/11 04:38:06;;;;;;;1.65;0.95;;;;;;;-1.79;100.00;92618.25;5048047;28;20110;-85
2022/01/11 04:40:32;;;;;;;2.70;1.30;;;;;;;-1.73;100.00;92604.28;5048439;28;20106;-86
2022/01/11 04:42:59;;;;;;;3.42;1.63;;;;;;;-1.72;100.00;92619.22;5048008;28;20049;-88
2022/01/11 04:45:26;;;;;;;2.28;1.25;;;;;;;-1.90;100.00;92596.63;5047903;28;20053;-85
2022/01/11 04:47:56;;;;;;;2.15;1.50;;;;;;;-1.75;100.00;92632.13;5047700;28;20048;-84
2022/01/11 04:50:25;;;;;;;2.50;1.60;;;;;;;-1.78;100.00;92628.16;5047587;28;20136;-86
2022/01/11 04:52:52;;;;;;;2.15;1.40;;;;;;;-1.93;100.00;92596.91;5047176;28;20075;-85
2022/01/11 04:55:31;;;;;;;1.75;1.00;;;;;;;-1.83;100.00;92632.84;5047785;28;20053;-85
2022/01/11 04:57:59;;;;;;;1.63;0.90;;;;;;;-1.80;100.00;92635.06;5047541;28;20047;-84
2022/01/11 05:00:29;;;;;;;3.05;1.25;;;;;;;-1.72;100.00;92634.31;5047567;28;20052;-83
2022/01/11 05:02:59;;;;;;;1.92;1.20;;;;;;;-1.77;100.00;92641.53;5031181;28;20049;-87
2022/01/11 05:05:29;;;;;;;2.55;1.48;;;;;;;-2.04;100.00;92595.47;5030826;28;20045;-84
2022/01/11 05:07:56;;;;;;;2.10;1.20;;;;;;;-1.79;100.00;92644.22;5031387;28;20136;-84
2022/01/11 05:10:26;;;;;;;2.30;1.40;;;;;;;-1.87;100.00;92629.06;5031563;28;20045;-85
2022/01/11 05:12:53;;;;;;;3.05;1.33;;;;;;;-1.79;100.00;92638.38;5031856;28;20560;-83
2022/01/11 05:15:20;;;;;;;2.00;1.38;;;;;;;-1.97;100.00;92624.13;5031877;28;20590;-84
2022/01/11 05:17:48;;;;;;;2.90;1.60;;;;;;;-1.97;100.00;92645.97;5031951;28;20131;-85
2022/01/11 05:20:16;;;;;;;2.75;1.10;;;;;;;-2.12;100.00;92618.84;5031969;28;20479;-84
2022/01/11 05:22:44;;;;;;;2.33;1.25;;;;;;;-1.95;100.00;92644.13;5031863;28;20046;-84
2022/01/11 05:25:13;;;;;;;5.55;4.30;;;;;;;-1.97;100.00;92648.50;5031940;28;20076;-84
2022/01/11 05:27:42;;;;;;;5.72;3.95;;;;;;;-1.98;100.00;92657.78;5031653;28;20056;-84
2022/01/11 05:30:10;;;;;;;6.03;4.50;;;;;;;-2.09;100.00;92646.22;5031935;28;20049;-85
2022/01/11 05:32:38;;;;;;;5.35;3.35;;;;;;;-1.90;100.00;92667.13;5031798;28;20045;-84
2022/01/11 05:35:08;;;;;;;12.57;7.97;;;;;;;-1.88;100.00;92680.34;5031625;28;20440;-84
2022/01/11 05:37:36;;;;;;;11.35;7.80;;;;;;;-2.00;100.00;92658.88;5031630;28;20038;-84
2022/01/11 05:40:04;;;;;;;8.82;5.95;;;;;;;-1.92;100.00;92679.84;5031613;28;20037;-84
2022/01/11 05:42:31;;;;;;;12.88;8.25;;;;;;;-1.97;100.00;92673.66;5031331;28;20476;-83
2022/01/11 05:44:59;;;;;;;6.20;3.75;;;;;;;-2.00;100.00;92681.53;5031368;28;20483;-84
2022/01/11 05:47:27;;;;;;;21.10;9.32;;;;;;;-2.04;100.00;92686.06;5031540;28;20052;-85
2022/01/11 05:49:53;;;;;;;28.98;12.75;;;;;;;-1.85;100.00;92692.63;5031311;28;20084;-84
2022/01/11 05:52:20;;;;;;;19.67;9.18;;;;;;;-1.86;100.00;92692.78;5031361;28;20046;-83
2022/01/11 05:54:47;;;;;;;22.92;10.57;;;;;;;-1.82;100.00;92692.34;5031044;28;20045;-83
2022/01/11 05:57:14;;;;;;;29.98;13.55;;;;;;;-1.92;100.00;92699.19;5031433;28;20060;-84
2022/01/11 05:59:41;;;;;;;8.63;4.35;;;;;;;-1.88;100.00;92696.25;5031343;28;20432;-84
2022/01/11 06:02:09;;;;;;;6.47;3.58;;;;;;;-1.94;100.00;92696.81;5031310;28;20049;-82
2022/01/11 06:04:36;;;;;;;11.23;5.90;;;;;;;-1.91;100.00;92701.56;5030370;28;20042;-84
2022/01/11 06:07:03;;;;;;;11.45;6.38;;;;;;;-1.90;100.00;92715.72;5030967;28;20054;-82
2022/01/11 06:09:30;;;;;;;4.32;2.47;;;;;;;-1.91;100.00;92728.44;5030923;28;20099;-83
2022/01/11 06:11:57;;;;;;;6.45;3.38;;;;;;;-1.88;100.00;92726.47;5031270;28;20041;-85
2022/01/11 06:14:24;;;;;;;5.75;3.28;;;;;;;-1.89;100.00;92729.13;5030927;28;20045;-82
2022/01/11 06:16:53;;;;;;;7.78;4.05;;;;;;;-1.86;100.00;92745.66;5002410;28;20056;-84
2022/01/11 06:19:22;;;;;;;10.75;6.03;;;;;;;-1.78;100.00;92735.63;5031017;28;20049;-84
2022/01/11 06:21:49;;;;;;;3.83;2.60;;;;;;;-1.82;100.00;92744.41;5030829;28;20391;-82
2022/01/11 06:24:15;;;;;;;12.57;6.75;;;;;;;-1.77;100.00;92743.03;5030837;28;20045;-83
2022/01/11 06:26:42;;;;;;;3.92;2.85;;;;;;;-1.68;100.00;92748.13;5030877;28;20045;-83
2022/01/11 06:29:10;;;;;;;4.57;2.80;;;;;;;-1.63;100.00;92745.97;5030900;28;20057;-82
2022/01/11 06:31:36;;;;;;;5.05;2.80;;;;;;;-1.72;100.00;92745.13;5030874;28;20048;-83
2022/01/11 06:34:04;;;;;;;6.35;3.75;;;;;;;-1.62;100.00;92758.41;5030826;28;20099;-82
2022/01/11 06:36:32;;;;;;;3.53;2.28;;;;;;;-1.75;100.00;92751.22;5048106;28;20049;-83
2022/01/11 06:38:59;;;;;;;6.75;3.10;;;;;;;-1.66;100.00;92757.13;5050588;28;20802;-85
2022/01/11 06:41:26;;;;;;;4.88;2.88;;;;;;;-1.74;100.00;92754.56;5050511;28;20049;-83
2022/01/11 06:43:54;;;;;;;6.63;3.25;;;;;;;-1.80;100.00;92753.41;5050567;28;20491;-83
2022/01/11 06:46:23;;;;;;;7.25;4.15;;;;;;;-1.78;100.00;92760.81;5050598;28;20045;-83
2022/01/11 06:48:51;;;;;;;13.88;6.75;;;;;;;-1.68;100.00;92769.09;5050486;28;20037;-84
2022/01/11 06:51:18;;;;;;;12.23;7.28;;;;;;;-1.77;100.00;92772.47;5050752;28;20131;-83
2022/01/11 06:53:47;;;;;;;10.50;5.82;;;;;;;-1.86;100.00;92764.06;5050506;28;20052;-82
2022/01/11 06:56:13;;;;;;;11.45;6.25;;;;;;;-1.75;100.00;92780.69;5050372;28;20056;-83
2022/01/11 06:58:40;;;;;;;9.07;5.43;;;;;;;-1.81;100.00;92777.00;5050542;28;20087;-81
2022/01/11 07:01:07;;;;;;;7.03;4.07;;;;;;;-1.78;100.00;92789.31;5050434;28;20143;-83
2022/01/11 07:03:34;;;;;;;6.32;3.70;;;;;;;-1.83;100.00;92778.88;5050259;28;20049;-83
2022/01/11 07:06:01;;;;;;;7.25;4.00;;;;;;;-1.83;100.00;92780.59;5050514;28;20068;-82
2022/01/11 07:08:27;;;;;;;5.75;2.60;;;;;;;-1.85;100.00;92785.00;5050568;28;20045;-83
2022/01/11 07:10:56;;;;;;;12.32;5.75;;;;;;;-1.81;100.00;92791.34;5050500;28;20049;-83
2022/01/11 07:13:23;;;;;;;6.18;2.80;;;;;;;-1.84;100.00;92796.66;5050300;28;20090;-82
2022/01/11 07:15:50;;;;;;;6.63;3.70;;;;;;;-1.84;100.00;92796.66;5051287;28;20473;-82
2022/01/11 07:18:17;;;;;;;7.80;4.47;;;;;;;-1.88;100.00;92806.22;5054143;28;20045;-82
2022/01/11 07:20:44;;;;;;;7.80;4.65;;;;;;;-1.83;100.00;92814.13;5054045;28;20053;-82
2022/01/11 07:23:11;;;;;;;4.10;2.60;;;;;;;-1.83;100.00;92813.31;5054123;28;20118;-82
2022/01/11 07:25:38;;;;;;;3.28;1.90;;;;;;;-1.89;100.00;92824.78;5054161;28;20090;-83
2022/01/11 07:28:07;;;;;;;4.85;2.88;;;;;;;-1.94;100.00;92817.63;5053849;28;20056;-82
2022/01/11 07:30:35;;;;;;;6.65;3.67;;;;;;;-1.86;100.00;92821.97;5054288;28;20391;-81
2022/01/11 07:33:01;;;;;;;4.28;2.97;;;;;;;-1.85;100.00;92818.50;5054081;28;20048;-81
2022/01/11 07:35:28;;;;;;;4.80;3.47;;;;;;;-1.85;100.00;92831.09;5053911;28;20048;-83
2022/01/11 07:37:55;;;;;;;7.32;4.50;;;;;;;-1.81;100.00;92837.44;5053871;28;20506;-82
2022/01/11 07:40:22;;;;;;;6.72;4.03;;;;;;;-1.85;100.00;92833.59;5053684;28;20037;-82
2022/01/11 07:42:50;;;;;;;15.00;10.30;;;;;;;-1.81;100.00;92834.91;5053655;28;20053;-84
2022/01/11 07:45:18;;;;;;;16.70;9.93;;;;;;;-1.91;100.00;92829.94;5053542;28;20060;-82
2022/01/11 07:47:45;;;;;;;4.35;2.83;;;;;;;-2.03;100.00;92814.25;5053745;28;20041;-84
2022/01/11 07:50:13;;;;;;;4.50;3.40;;;;;;;-1.78;100.00;92839.66;5053655;28;20040;-83
2022/01/11 07:52:40;;;;;;;6.40;3.90;;;;;;;-1.87;100.00;92845.56;5053586;28;20094;-83
2022/01/11 07:55:08;;;;;;;5.70;3.33;;;;;;;-2.02;100.00;92818.38;5053418;28;20095;-84
2022/01/11 07:57:35;;;;;;;10.02;6.43;;;;;;;-1.82;100.00;92833.34;5053326;28;20045;-83
2022/01/11 08:00:07;;;;;;;6.13;2.72;;;;;;;-1.84;100.00;92834.41;5053392;28;20411;-83
2022/01/11 08:02:35;;;;;;;4.68;2.42;;;;;;;-1.88;100.00;92819.59;5053294;28;20479;-82
2022/01/11 08:05:02;;;;;;;8.27;5.82;;;;;;;-1.89;100.00;92828.06;5053382;28;20056;-83
2022/01/11 08:07:29;;;;;;;7.50;3.38;;;;;;;-1.94;100.00;92835.25;5053225;28;20044;-83
2022/01/11 08:09:55;;;;;;;10.95;7.25;;;;;;;-1.93;100.00;92841.09;5053241;28;20045;-82
2022/01/11 08:12:22;;;;;;;4.65;2.75;;;;;;;-1.97;100.00;92833.03;5052993;28;20049;-84
2022/01/11 08:14:49;;;;;;;3.83;2.60;;;;;;;-1.99;100.00;92839.91;5053218;28;20041;-83
2022/01/11 08:17:16;;;;;;;6.07;3.42;;;;;;;-2.16;100.00;92839.75;5052864;28;20053;-82
2022/01/11 08:19:46;;;;;;;8.13;4.70;;;;;;;-2.15;100.00;92838.84;5052885;28;20448;-81
2022/01/11 08:22:17;;;;;;;3.95;2.15;;;;;;;-2.20;100.00;92842.72;5052869;28;20422;-83
2022/01/11 08:24:44;;;;;;;9.95;5.82;;;;;;;-2.22;100.00;92842.06;5052810;28;20045;-88
2022/01/11 08:27:14;;;;;;;5.82;3.25;;;;;;;-2.21;100.00;92841.13;5052576;28;20041;-85
2022/01/11 08:29:42;;;;;;;3.47;2.25;;;;;;;-2.35;100.00;92840.69;5052584;28;20483;-84
2022/01/11 08:32:09;;;;;;;4.18;2.80;;;;;;;-2.37;100.00;92819.09;5052613;28;20045;-84
2022/01/11 08:34:36;;;;;;;8.68;5.43;;;;;;;-2.34;100.00;92821.31;5052770;28;20476;-84
2022/01/11 08:37:05;;;;;;;5.05;3.42;;;;;;;-2.47;100.00;92806.56;5052498;28;20487;-83
2022/01/11 08:39:34;;;;;;;5.60;3.30;;;;;;;-2.32;100.00;92822.78;5052583;28;20477;-82
2022/01/11 08:42:01;;;;;;;5.75;3.33;;;;;;;-2.40;100.00;92802.56;5052670;28;20475;-84
2022/01/11 08:44:31;;;;;;;4.40;2.70;;;;;;;-2.38;100.00;92809.97;5052506;28;20480;-86
2022/01/11 08:46:58;;;;;;;4.90;3.45;;;;;;;-2.36;100.00;92829.00;5052611;28;20044;-84
2022/01/11 08:49:25;;;;;;;20.73;11.02;;;;;;;-2.36;100.00;92818.94;5052478;28;20475;-84
2022/01/11 08:51:57;;;;;;;19.35;8.88;;;;;;;-2.36;100.00;92833.25;5052246;28;20049;-85
2022/01/11 08:54:25;;;;;;;28.38;14.40;;;;;;;-2.32;100.00;92812.72;5052575;28;20049;-87
2022/01/11 08:56:53;;;;;;;6.68;5.18;;;;;;;-2.33;100.00;92826.22;5052272;28;20087;-90
2022/01/11 08:59:21;;;;;;;5.35;4.38;;;;;;;-2.32;100.00;92839.59;5052393;28;20091;-87
2022/01/11 09:01:48;;;;;;;10.05;7.20;;;;;;;-2.36;100.00;92828.22;5052254;28;20063;-83
2022/01/11 09:04:16;;;;;;;22.45;12.93;;;;;;;-2.49;100.00;92809.25;5052131;28;20048;-90
2022/01/11 09:06:43;;;;;;;24.27;13.75;;;;;;;-2.31;100.00;92843.69;5052379;28;20131;-85
2022/01/11 09:09:10;;;;;;;21.10;11.77;;;;;;;-2.34;100.00;92847.28;5052122;28;20045;-88
2022/01/11 09:11:42;;;;;;;165.48;71.85;;;;;;;-2.47;100.00;92887.84;5050073;28;20041;-82
2022/01/11 09:14:09;;;;;;;18.48;11.77;;;;;;;-2.63;100.00;92819.75;5051997;28;20044;-84
2022/01/11 09:16:36;;;;;;;20.58;15.77;;;;;;;-2.62;100.00;92826.34;5051856;28;20060;-83
2022/01/11 09:19:04;;;;;;;6.45;4.70;;;;;;;-2.48;100.00;92860.31;5051578;28;20052;-84
2022/01/11 09:21:32;;;;;;;6.95;4.45;;;;;;;-2.42;100.00;92835.41;5051880;28;20041;-84
2022/01/11 09:24:01;;;;;;;7.32;4.88;;;;;;;-2.43;100.00;92838.84;5051591;28;20036;-85
2022/01/11 09:26:37;;;;;;;;;;;;;;;;;;;;;
2022/01/11 09:29:13;;;;;;;5.85;3.38;;;;;;;-2.38;100.00;92851.00;5051010;28;20051;-87
2022/01/11 09:31:39;;;;;;;10.02;6.03;;;;;;;-2.35;100.00;92870.06;5051580;28;20426;-82
2022/01/11 09:34:07;;;;;;;11.70;5.40;;;;;;;-2.30;100.00;92865.41;5051080;28;20044;-84
2022/01/11 09:36:34;;;;;;;13.43;6.68;;;;;;;-2.34;100.00;92866.59;5051185;28;20480;-84
2022/01/11 09:39:01;;;;;;;9.00;5.82;;;;;;;-2.38;100.00;92883.72;5051152;28;20037;-85
2022/01/11 09:41:27;;;;;;;8.93;5.78;;;;;;;-2.42;100.00;92873.13;5051405;28;20044;-85
2022/01/11 09:43:57;;;;;;;5.85;3.28;;;;;;;-2.39;100.00;92872.06;5050952;28;20056;-85
2022/01/11 09:46:26;;;;;;;3.97;2.75;;;;;;;-2.33;100.00;92868.19;5051750;28;20057;-86
2022/01/11 09:48:53;;;;;;;5.03;2.88;;;;;;;-2.46;100.00;92876.06;5051408;28;20055;-84
2022/01/11 09:51:23;;;;;;;6.78;4.15;;;;;;;-2.37;100.00;92872.72;5051018;28;20114;-88
2022/01/11 09:53:51;;;;;;;6.20;4.38;;;;;;;-2.35;100.00;92888.47;5051279;28;20044;-86
2022/01/11 09:56:20;;;;;;;7.55;4.38;;;;;;;-2.28;100.00;92886.19;5051039;28;20049;-88
2022/01/11 09:58:47;;;;;;;13.65;7.05;;;;;;;-2.15;100.00;92881.63;5050637;28;20056;-84
2022/01/11 10:01:14;;;;;;;7.15;4.40;;;;;;;-2.28;100.00;92896.25;5051060;28;20045;-86
2022/01/11 10:04:06;;;;;;;8.20;4.80;;;;;;;-2.32;100.00;92910.03;5050691;28;20045;-85
2022/01/11 10:06:33;;;;;;;5.72;4.57;;;;;;;-2.34;100.00;92905.16;5048370;28;20521;-83
2022/01/11 10:09:18;;;;;;;6.35;4.90;;;;;;;-2.26;100.00;92919.56;5049577;28;20611;-84
2022/01/11 10:11:49;;;;;;;5.90;3.63;;;;;;;-2.41;100.00;92931.75;5050583;28;20087;-88
2022/01/11 10:14:31;;;;;;;5.70;3.47;;;;;;;-2.37;100.00;92924.75;5051517;28;20127;-90
2022/01/11 10:17:08;;;;;;;8.75;5.18;;;;;;;-2.26;100.00;92928.81;5050809;28;20480;-88
2022/01/11 10:19:38;;;;;;;8.60;5.38;;;;;;;-2.39;100.00;92906.47;5050541;28;20048;-86
2022/01/11 10:22:07;;;;;;;8.90;5.78;;;;;;;-2.17;100.00;92917.94;5050270;28;20115;-86
2022/01/11 10:24:38;;;;;;;15.93;8.40;;;;;;;-2.18;100.00;92916.34;5049325;28;20140;-85
2022/01/11 10:27:08;;;;;;;18.48;9.23;;;;;;;-2.10;100.00;92913.09;5049816;28;20049;-88
2022/01/11 10:29:40;;;;;;;8.10;4.57;;;;;;;-2.17;100.00;92921.22;5050230;28;20055;-92
2022/01/11 10:32:17;;;;;;;15.07;8.40;;;;;;;-2.06;100.00;92906.88;5048881;28;20132;-87
2022/01/11 10:34:48;;;;;;;13.43;8.75;;;;;;;-2.42;100.00;92860.56;5050597;28;20048;-87
2022/01/11 10:37:20;;;;;;;7.85;4.93;;;;;;;-2.11;100.00;92909.81;5050729;28;20083;-85
2022/01/11 10:39:49;;;;;;;10.20;5.80;;;;;;;-1.99;100.00;92924.72;5047450;28;20107;-90
2022/01/11 10:42:33;;;;;;;10.57;6.15;;;;;;;-2.06;100.00;92905.16;5050783;28;20136;-85
2022/01/11 10:45:04;;;;;;;8.95;5.55;;;;;;;-2.00;100.00;92901.28;5050597;28;20045;-83
2022/01/11 10:47:35;;;;;;;6.68;4.43;;;;;;;-2.24;100.00;92890.00;5030734;28;20116;-91
2022/01/11 10:50:09;;;;;;;10.75;6.43;;;;;;;-2.31;100.00;92876.41;5031426;28;20104;-90
2022/01/11 10:52:38;;;;;;;10.90;7.20;;;;;;;-2.18;100.00;92881.91;5034705;28;20056;-92
2022/01/11 10:55:08;;;;;;;7.68;5.03;;;;;;;-2.15;100.00;92906.00;5036203;28;20525;-86
2022/01/11 10:57:49;;;;;;;11.98;7.68;;;;;;;-2.26;100.00;92886.84;5039249;28;20045;-86
2022/01/11 11:00:23;;;;;;;10.95;6.22;;;;;;;-2.15;100.00;92906.78;5054513;28;20053;-95
2022/01/11 11:05:56;;;;;;;13.38;7.63;;;;;;;-2.22;100.00;92922.59;5054775;28;20522;-89
2022/01/11 11:08:27;;;;;;;16.73;11.75;;;;;;;-2.12;100.00;92923.34;5054575;28;20045;-85
2022/01/11 11:11:11;;;;;;;46.33;29.63;;;;;;;-2.21;100.00;92914.09;5054693;28;20049;-84
2022/01/11 11:13:43;;;;;;;32.88;18.55;;;;;;;-2.18;100.00;92934.75;5054242;28;20049;-88
2022/01/11 11:16:15;;;;;;;166.95;86.22;;;;;;;-2.62;100.00;92889.22;5053914;28;20049;-86
2022/01/11 11:18:46;;;;;;;28.20;12.10;;;;;;;-2.33;100.00;92929.38;5054017;28;20045;-84
2022/01/11 11:21:17;;;;;;;68.43;30.67;;;;;;;-2.26;100.00;92932.13;5054004;28;20500;-84
2022/01/11 11:23:45;;;;;;;23.23;10.95;;;;;;;-2.30;100.00;92925.78;5054119;28;20041;-84
2022/01/11 11:26:15;;;;;;;23.10;10.90;;;;;;;-2.35;100.00;92941.31;5054164;28;20052;-83
2022/01/11 11:28:42;;;;;;;125.07;51.60;;;;;;;-2.39;100.00;92934.97;5054014;28;20079;-84
2022/01/11 11:31:11;;;;;;;49.42;23.10;;;;;;;-2.42;100.00;92938.53;5054051;28;20048;-86
2022/01/11 11:33:42;;;;;;;49.33;21.58;;;;;;;-2.49;100.00;92936.69;5053996;28;20061;-87
2022/01/11 11:36:14;;;;;;;18.17;9.23;;;;;;;-3.06;100.00;92849.53;5054675;28;20404;-87
2022/01/11 11:38:48;;;;;;;39.15;18.15;;;;;;;-2.56;100.00;92922.16;5053493;28;20453;-86